createdAt,value
2017-10-11T00:01:03.929Z,98583.42
2017-10-11T00:03:33.221Z,98590.23
2017-10-11T00:06:02.542Z,98591.31
2017-10-11T00:08:30.913Z,98592.94
2017-10-11T00:11:00.216Z,98592.22
2017-10-11T00:13:31.682Z,98591.34
2017-10-11T00:16:00.037Z,98587.86
2017-10-11T00:18:28.810Z,98590.72
2017-10-11T00:20:57.139Z,98588.52
2017-10-11T00:23:26.707Z,98591.33
2017-10-11T00:25:56.097Z,98590.44
2017-10-11T00:28:25.599Z,98595.48
2017-10-11T00:30:54.341Z,98594.75
2017-10-11T00:33:22.663Z,98595.34
2017-10-11T00:35:51.073Z,98596.56
2017-10-11T00:38:20.368Z,98599.50
2017-10-11T00:40:49.727Z,98603.20
2017-10-11T00:43:18.074Z,98599.37
2017-10-11T00:45:46.485Z,98598.37
2017-10-11T00:48:14.849Z,98598.00
2017-10-11T00:50:43.186Z,98599.95
2017-10-11T00:53:12.752Z,98599.73
2017-10-11T00:55:41.170Z,98589.52
2017-10-11T00:58:10.485Z,98585.55
2017-10-11T01:00:40.509Z,98591.29
2017-10-11T01:03:09.682Z,98595.73
2017-10-11T01:05:38.092Z,98597.05
2017-10-11T01:08:06.462Z,98595.64
2017-10-11T01:10:35.773Z,98596.67
2017-10-11T01:13:05.071Z,98595.38
2017-10-11T01:15:34.352Z,98597.42
2017-10-11T01:18:03.704Z,98595.59
2017-10-11T01:20:34.182Z,98599.95
2017-10-11T01:23:03.499Z,98599.81
2017-10-11T01:25:32.853Z,98605.28
2017-10-11T01:28:02.133Z,98601.86
2017-10-11T01:30:30.470Z,98601.61
2017-10-11T01:32:59.788Z,98603.11
2017-10-11T01:35:29.097Z,98600.08
2017-10-11T01:37:57.432Z,98606.48
2017-10-11T01:40:30.494Z,98604.27
2017-10-11T01:42:59.155Z,98605.69
2017-10-11T01:45:28.458Z,98601.02
2017-10-11T01:47:56.807Z,98602.16
2017-10-11T01:50:25.200Z,98594.58
2017-10-11T01:52:55.467Z,98595.58
2017-10-11T01:55:23.794Z,98592.99
2017-10-11T01:57:52.204Z,98596.91
2017-10-11T02:00:20.624Z,98601.34
2017-10-11T02:02:49.369Z,98594.84
2017-10-11T02:05:18.854Z,98594.88
2017-10-11T02:07:48.177Z,98598.32
2017-10-11T02:10:16.569Z,98593.98
2017-10-11T02:12:44.952Z,98593.91
2017-10-11T02:15:13.712Z,98594.62
2017-10-11T02:17:42.040Z,98600.08
2017-10-11T02:20:10.369Z,98601.63
2017-10-11T02:22:39.668Z,98604.23
2017-10-11T02:25:08.972Z,98607.06
2017-10-11T02:27:38.296Z,98606.14
2017-10-11T02:42:09.685Z,98603.02
2017-10-11T02:44:38.254Z,98602.69
2017-10-11T02:47:06.605Z,98603.02
2017-10-11T02:49:34.933Z,98601.78
2017-10-11T02:52:04.262Z,98599.44
2017-10-11T02:54:33.572Z,98599.55
2017-10-11T02:57:01.938Z,98596.20
2017-10-11T02:59:31.255Z,98597.25
2017-10-11T03:01:59.610Z,98592.10
2017-10-11T03:04:28.016Z,98599.17
2017-10-11T03:06:56.379Z,98602.62
2017-10-11T03:09:25.672Z,98599.16
2017-10-11T03:11:54.997Z,98599.58
2017-10-11T03:14:23.343Z,98598.64
2017-10-11T03:16:51.743Z,98594.30
2017-10-11T03:19:21.105Z,98593.33
2017-10-11T03:21:49.418Z,98591.67
2017-10-11T03:24:18.784Z,98591.69
2017-10-11T03:26:48.637Z,98593.59
2017-10-11T03:29:18.048Z,98595.59
2017-10-11T03:31:47.165Z,98601.06
2017-10-11T03:34:15.617Z,98597.81
2017-10-11T03:36:45.328Z,98598.23
2017-10-11T03:39:14.511Z,98595.73
2017-10-11T03:41:42.899Z,98597.48
2017-10-11T03:44:11.335Z,98597.98
2017-10-11T03:46:39.693Z,98591.79
2017-10-11T03:49:08.071Z,98590.97
2017-10-11T03:51:36.436Z,98595.23
2017-10-11T03:54:05.827Z,98589.44
2017-10-11T03:56:34.170Z,98587.29
2017-10-11T03:59:02.534Z,98585.55
2017-10-11T04:01:30.926Z,98581.34
2017-10-11T04:04:02.585Z,98584.78
2017-10-11T04:06:31.019Z,98581.64
2017-10-11T04:09:00.352Z,98573.78
2017-10-11T04:11:28.680Z,98573.95
2017-10-11T04:13:57.091Z,98584.72
2017-10-11T04:16:25.460Z,98577.52
2017-10-11T04:18:55.083Z,98578.33
2017-10-11T04:21:23.458Z,98576.34
2017-10-11T04:23:52.753Z,98582.61
2017-10-11T04:26:22.027Z,98586.01
2017-10-11T04:28:50.440Z,98587.38
2017-10-11T04:31:19.536Z,98589.02
2017-10-11T04:33:47.868Z,98584.33
2017-10-11T04:36:16.229Z,98585.64
2017-10-11T04:38:44.558Z,98594.42
2017-10-11T04:41:14.614Z,98588.27
2017-10-11T04:43:42.933Z,98592.20
2017-10-11T04:46:11.287Z,98595.70
2017-10-11T04:48:39.649Z,98598.77
2017-10-11T04:51:08.311Z,98594.53
2017-10-11T04:53:37.590Z,98593.61
2017-10-11T04:56:06.913Z,98591.36
2017-10-11T04:58:36.297Z,98586.52
2017-10-11T05:01:04.613Z,98590.57
2017-10-11T05:03:33.095Z,98586.25
2017-10-11T05:06:01.487Z,98591.81
2017-10-11T05:08:30.649Z,98593.92
2017-10-11T05:10:59.961Z,98585.66
2017-10-11T05:13:30.272Z,98582.16
2017-10-11T05:15:58.582Z,98575.66
2017-10-11T05:18:26.927Z,98587.38
2017-10-11T05:20:55.342Z,98584.84
2017-10-11T05:23:23.700Z,98578.52
2017-10-11T05:25:52.816Z,98585.08
2017-10-11T05:28:21.134Z,98580.23
2017-10-11T05:30:49.491Z,98581.57
2017-10-11T05:33:17.815Z,98583.67
2017-10-11T05:35:46.241Z,98582.22
2017-10-11T05:38:15.530Z,98589.95
2017-10-11T05:40:44.803Z,98592.57
2017-10-11T05:43:13.246Z,98596.13
2017-10-11T05:45:41.582Z,98592.22
2017-10-11T05:48:10.899Z,98593.80
2017-10-11T05:50:39.303Z,98599.08
2017-10-11T05:53:07.642Z,98593.18
2017-10-11T05:55:36.739Z,98597.42
2017-10-11T05:58:05.100Z,98594.81
2017-10-11T06:00:33.453Z,98596.60
2017-10-11T06:03:02.707Z,98600.41
2017-10-11T06:05:31.096Z,98602.62
2017-10-11T06:07:59.430Z,98605.22
2017-10-11T06:10:27.822Z,98601.86
2017-10-11T06:12:56.248Z,98608.75
2017-10-11T06:15:24.625Z,98608.69
2017-10-11T06:17:52.993Z,98610.50
2017-10-11T06:20:21.634Z,98614.98
2017-10-11T06:22:50.339Z,98614.72
2017-10-11T06:25:18.742Z,98615.44
2017-10-11T06:27:47.855Z,98619.81
2017-10-11T06:30:17.014Z,98622.03
2017-10-11T06:32:45.416Z,98623.23
2017-10-11T06:35:14.716Z,98623.32
2017-10-11T06:37:44.024Z,98626.80
2017-10-11T06:40:13.318Z,98626.11
2017-10-11T06:42:42.641Z,98630.34
2017-10-11T06:45:11.041Z,98623.60
2017-10-11T06:47:39.352Z,98624.42
2017-10-11T06:50:07.838Z,98627.27
2017-10-11T06:52:36.163Z,98624.53
2017-10-11T06:55:04.572Z,98630.87
2017-10-11T06:57:32.913Z,98625.46
2017-10-11T07:00:01.282Z,98625.95
2017-10-11T07:02:30.629Z,98622.11
2017-10-11T07:04:59.351Z,98620.32
2017-10-11T07:07:28.571Z,98630.45
2017-10-11T07:09:57.258Z,98619.82
2017-10-11T07:12:26.637Z,98617.42
2017-10-11T07:14:54.967Z,98621.00
2017-10-11T07:17:23.329Z,98624.42
2017-10-11T07:19:51.705Z,98627.36
2017-10-11T07:22:21.002Z,98625.85
2017-10-11T07:24:53.354Z,98622.27
2017-10-11T07:27:21.784Z,98620.27
2017-10-11T07:29:50.444Z,98622.72
2017-10-11T07:32:19.741Z,98623.54
2017-10-11T07:34:49.043Z,98624.55
2017-10-11T07:37:18.328Z,98621.36
2017-10-11T07:39:47.647Z,98624.79
2017-10-11T07:42:16.930Z,98628.25
2017-10-11T07:44:45.358Z,98635.38
2017-10-11T07:47:13.687Z,98628.43
2017-10-11T07:49:42.114Z,98627.72
2017-10-11T07:52:13.827Z,98632.18
2017-10-11T07:54:42.645Z,98628.67
2017-10-11T07:57:10.973Z,98628.17
2017-10-11T07:59:39.296Z,98628.99
2017-10-11T08:02:08.607Z,98636.30
2017-10-11T08:04:37.913Z,98635.31
2017-10-11T08:07:06.299Z,98637.32
2017-10-11T08:09:34.672Z,98631.08
2017-10-11T08:12:03.051Z,98635.95
2017-10-11T08:14:31.394Z,98642.52
2017-10-11T08:16:59.739Z,98647.27
2017-10-11T08:19:29.111Z,98641.61
2017-10-11T08:22:01.154Z,98647.91
2017-10-11T08:24:30.596Z,98638.00
2017-10-11T08:26:59.164Z,98643.00
2017-10-11T08:29:29.716Z,98639.06
2017-10-11T08:32:00.865Z,98644.95
2017-10-11T08:34:31.571Z,98646.28
2017-10-11T08:37:02.138Z,98642.75
2017-10-11T08:39:32.306Z,98649.93
2017-10-11T08:42:05.827Z,98640.34
2017-10-11T08:44:35.440Z,98650.55
2017-10-11T08:47:04.059Z,98645.02
2017-10-11T08:49:33.923Z,98644.75
2017-10-11T08:52:04.777Z,98650.25
2017-10-11T08:54:33.966Z,98641.73
2017-10-11T08:57:03.494Z,98649.07
2017-10-11T08:59:35.163Z,98648.49
2017-10-11T09:02:05.268Z,98652.36
2017-10-11T09:04:35.505Z,98650.92
2017-10-11T09:07:06.687Z,98649.23
2017-10-11T09:09:37.116Z,98655.42
2017-10-11T09:12:07.226Z,98650.84
2017-10-11T09:14:36.453Z,98651.66
2017-10-11T09:17:05.975Z,98650.44
2017-10-11T09:19:35.444Z,98648.76
2017-10-11T09:22:04.684Z,98652.39
2017-10-11T09:24:34.042Z,98651.58
2017-10-11T09:27:02.395Z,98656.52
2017-10-11T09:29:30.740Z,98644.27
2017-10-11T09:32:00.095Z,98641.64
2017-10-11T09:34:28.488Z,98643.77
2017-10-11T09:36:56.849Z,98645.59
2017-10-11T09:39:25.184Z,98640.96
2017-10-11T09:41:55.422Z,98644.42
2017-10-11T09:44:23.764Z,98640.17
2017-10-11T09:46:52.481Z,98635.03
2017-10-11T09:49:21.773Z,98640.80
2017-10-11T09:51:51.335Z,98639.89
2017-10-11T09:54:19.765Z,98637.14
2017-10-11T09:56:49.040Z,98628.05
2017-10-11T09:59:17.455Z,98630.19
2017-10-11T10:01:46.804Z,98633.42
2017-10-11T10:04:15.239Z,98628.96
2017-10-11T10:06:45.370Z,98628.65
2017-10-11T10:09:14.731Z,98629.59
2017-10-11T10:11:43.059Z,98632.32
2017-10-11T10:14:11.828Z,98626.42
2017-10-11T10:16:40.191Z,98619.95
2017-10-11T10:19:08.520Z,98624.91
2017-10-11T10:21:36.873Z,98620.45
2017-10-11T10:24:05.224Z,98626.64
2017-10-11T10:26:33.636Z,98628.36
2017-10-11T10:29:01.986Z,98627.05
2017-10-11T10:31:31.301Z,98632.81
2017-10-11T10:34:00.583Z,98631.09
2017-10-11T10:36:29.387Z,98625.15
2017-10-11T10:38:57.757Z,98629.30
2017-10-11T10:41:27.275Z,98630.42
2017-10-11T10:43:56.599Z,98624.91
2017-10-11T10:46:24.950Z,98625.75
2017-10-11T10:48:54.260Z,98623.61
2017-10-11T10:51:23.566Z,98621.39
2017-10-11T10:53:52.898Z,98628.67
2017-10-11T10:56:21.249Z,98618.72
2017-10-11T10:58:50.622Z,98624.22
2017-10-11T11:01:20.277Z,98616.49
2017-10-11T11:03:48.598Z,98619.23
2017-10-11T11:06:16.992Z,98619.13
2017-10-11T11:08:45.312Z,98611.54
2017-10-11T11:11:13.686Z,98613.38
2017-10-11T11:13:42.050Z,98614.01
2017-10-11T11:16:11.363Z,98618.84
2017-10-11T11:18:40.657Z,98612.76
2017-10-11T11:21:10.213Z,98611.56
2017-10-11T11:23:38.953Z,98602.50
2017-10-11T11:26:08.242Z,98604.22
2017-10-11T11:28:36.637Z,98599.98
2017-10-11T11:31:05.915Z,98594.81
2017-10-11T11:33:34.338Z,98596.05
2017-10-11T11:36:02.676Z,98595.33
2017-10-11T11:38:31.096Z,98589.75
2017-10-11T11:40:59.457Z,98589.23
2017-10-11T11:43:28.780Z,98585.80
2017-10-11T11:45:57.119Z,98592.38
2017-10-11T11:48:25.511Z,98584.46
2017-10-11T11:50:54.976Z,98584.37
2017-10-11T11:53:23.491Z,98576.78
2017-10-11T11:55:51.894Z,98578.50
2017-10-11T11:58:21.223Z,98577.09
2017-10-11T12:00:49.588Z,98570.59
2017-10-11T12:03:17.949Z,98571.91
2017-10-11T12:05:47.098Z,98566.13
2017-10-11T12:08:15.634Z,98562.27
2017-10-11T12:10:44.976Z,98559.95
2017-10-11T12:13:18.547Z,98559.02
2017-10-11T12:15:47.817Z,98559.02
2017-10-11T12:18:16.553Z,98558.52
2017-10-11T12:20:44.911Z,98553.23
2017-10-11T12:23:14.229Z,98560.87
2017-10-11T12:25:42.650Z,98552.42
2017-10-11T12:28:11.009Z,98547.98
2017-10-11T12:30:39.377Z,98553.14
2017-10-11T12:33:07.744Z,98548.11
2017-10-11T12:35:36.129Z,98544.64
2017-10-11T12:38:04.480Z,98548.09
2017-10-11T12:40:33.784Z,98545.95
2017-10-11T12:43:02.882Z,98542.16
2017-10-11T12:45:32.112Z,98540.64
2017-10-11T12:48:00.458Z,98542.95
2017-10-11T12:50:29.833Z,98532.61
2017-10-11T12:52:59.382Z,98533.02
2017-10-11T12:55:38.680Z,98531.47
2017-10-11T12:58:11.492Z,98534.83
2017-10-11T13:00:54.794Z,98528.34
2017-10-11T13:03:30.143Z,98530.39
2017-10-11T13:06:05.503Z,98512.62
2017-10-11T13:08:40.408Z,98522.47
2017-10-11T13:11:15.415Z,98514.55
2017-10-11T13:13:43.869Z,98524.27
2017-10-11T13:16:13.171Z,98520.62
2017-10-11T13:18:42.469Z,98517.88
2017-10-11T13:21:11.763Z,98515.33
2017-10-11T13:23:41.084Z,98515.82
2017-10-11T13:26:10.379Z,98508.70
2017-10-11T13:28:39.176Z,98510.52
2017-10-11T13:31:07.737Z,98506.96
2017-10-11T13:33:37.047Z,98497.73
2017-10-11T13:36:06.369Z,98503.12
2017-10-11T13:38:34.734Z,98496.91
2017-10-11T13:41:03.133Z,98497.52
2017-10-11T13:43:31.496Z,98497.19
2017-10-11T13:46:00.803Z,98497.91
2017-10-11T13:48:29.156Z,98496.66
2017-10-11T13:50:59.715Z,98492.30
2017-10-11T13:53:29.013Z,98491.55
2017-10-11T13:55:57.383Z,98488.71
2017-10-11T13:58:26.696Z,98493.84
2017-10-11T14:00:55.044Z,98497.42
2017-10-11T14:03:23.457Z,98485.94
2017-10-11T14:05:51.834Z,98486.22
2017-10-11T14:08:21.136Z,98478.19
2017-10-11T14:10:50.440Z,98479.31
2017-10-11T14:13:19.110Z,98473.53
2017-10-11T14:15:48.413Z,98469.49
2017-10-11T14:18:17.728Z,98465.61
2017-10-11T14:20:46.094Z,98475.95
2017-10-11T14:23:15.379Z,98474.44
2017-10-11T14:25:43.787Z,98472.11
2017-10-11T14:28:14.299Z,98473.50
2017-10-11T14:30:44.562Z,98468.13
2017-10-11T14:33:12.913Z,98470.64
2017-10-11T14:35:42.297Z,98463.38
2017-10-11T14:38:10.636Z,98466.22
2017-10-11T14:40:39.901Z,98467.48
2017-10-11T14:43:09.305Z,98465.34
2017-10-11T14:45:37.620Z,98456.98
2017-10-11T14:48:06.045Z,98458.84
2017-10-11T14:50:34.372Z,98456.41
2017-10-11T14:53:02.747Z,98457.70
2017-10-11T14:55:31.081Z,98454.66
2017-10-11T14:57:59.513Z,98457.67
2017-10-11T15:00:27.864Z,98463.19
2017-10-11T15:02:56.235Z,98452.72
2017-10-11T15:05:25.544Z,98453.11
2017-10-11T15:07:54.848Z,98449.42
2017-10-11T15:10:24.178Z,98457.11
2017-10-11T15:12:53.118Z,98457.14
2017-10-11T15:15:21.538Z,98450.95
2017-10-11T15:17:49.903Z,98448.45
2017-10-11T15:20:19.720Z,98449.50
2017-10-11T15:22:48.814Z,98442.16
2017-10-11T15:25:18.116Z,98446.84
2017-10-11T15:27:47.429Z,98449.75
2017-10-11T15:30:15.789Z,98439.73
2017-10-11T15:32:45.131Z,98448.64
2017-10-11T15:35:13.538Z,98446.70
2017-10-11T15:37:43.096Z,98440.82
2017-10-11T15:40:11.470Z,98441.50
2017-10-11T15:42:40.591Z,98440.62
2017-10-11T15:45:08.950Z,98433.99
2017-10-11T15:47:37.302Z,98438.36
2017-10-11T15:50:05.641Z,98434.62
2017-10-11T15:52:36.132Z,98436.28
2017-10-11T15:55:05.496Z,98440.23
2017-10-11T15:57:34.584Z,98436.69
2017-10-11T16:00:03.125Z,98436.91
2017-10-11T16:02:31.493Z,98431.66
2017-10-11T16:05:01.209Z,98430.13
2017-10-11T16:07:30.757Z,98426.33
2017-10-11T16:10:02.511Z,98423.26
2017-10-11T16:12:31.775Z,98423.86
2017-10-11T16:15:01.126Z,98427.82
2017-10-11T16:17:29.498Z,98424.66
2017-10-11T16:19:59.116Z,98427.55
2017-10-11T16:22:27.484Z,98433.33
2017-10-11T16:24:56.823Z,98429.42
2017-10-11T16:27:25.212Z,98432.74
2017-10-11T16:29:54.719Z,98435.34
2017-10-11T16:32:24.451Z,98434.95
2017-10-11T16:34:52.795Z,98436.66
2017-10-11T16:37:21.875Z,98435.05
2017-10-11T16:39:50.771Z,98441.05
2017-10-11T16:42:19.108Z,98444.80
2017-10-11T16:44:49.369Z,98440.27
2017-10-11T16:47:17.730Z,98437.52
2017-10-11T16:49:47.022Z,98437.64
2017-10-11T16:52:15.835Z,98438.44
2017-10-11T16:54:47.865Z,98431.73
2017-10-11T16:57:16.216Z,98436.63
2017-10-11T16:59:45.751Z,98438.81
2017-10-11T17:02:15.069Z,98441.44
2017-10-11T17:04:43.415Z,98439.22
2017-10-11T17:07:12.747Z,98438.18
2017-10-11T17:09:41.471Z,98444.48
2017-10-11T17:12:11.048Z,98447.42
2017-10-11T17:14:39.410Z,98451.17
2017-10-11T17:17:07.798Z,98454.22
2017-10-11T17:19:36.194Z,98453.13
2017-10-11T17:22:08.631Z,98450.46
2017-10-11T17:24:38.048Z,98447.92
2017-10-11T17:27:06.605Z,98440.31
2017-10-11T17:29:36.176Z,98442.72
2017-10-11T17:32:04.603Z,98446.37
2017-10-11T17:34:32.986Z,98448.47
2017-10-11T17:37:01.402Z,98448.28
2017-10-11T17:39:30.033Z,98445.66
2017-10-11T17:41:58.437Z,98451.31
2017-10-11T17:44:28.069Z,98460.84
2017-10-11T17:46:56.394Z,98460.92
2017-10-11T17:49:24.816Z,98465.52
2017-10-11T17:51:53.209Z,98466.48
2017-10-11T17:54:22.747Z,98465.45
2017-10-11T17:56:51.159Z,98465.72
2017-10-11T17:59:20.953Z,98470.90
2017-10-11T18:01:49.411Z,98463.89
2017-10-11T18:04:17.740Z,98468.86
2017-10-11T18:06:47.180Z,98470.75
2017-10-11T18:09:15.525Z,98467.92
2017-10-11T18:11:43.887Z,98472.42
2017-10-11T18:14:12.272Z,98472.53
2017-10-11T18:16:40.624Z,98470.92
2017-10-11T18:19:08.990Z,98466.07
2017-10-11T18:21:37.337Z,98467.90
2017-10-11T18:24:07.040Z,98462.15
2017-10-11T18:26:39.009Z,98459.08
2017-10-11T18:29:08.627Z,98461.34
2017-10-11T18:31:36.981Z,98459.92
2017-10-11T18:34:06.264Z,98460.95
2017-10-11T18:36:35.017Z,98457.85
2017-10-11T18:39:03.369Z,98452.39
2017-10-11T18:41:31.760Z,98444.28
2017-10-11T18:44:00.126Z,98445.48
2017-10-11T18:46:30.152Z,98450.23
2017-10-11T18:48:58.487Z,98451.95
2017-10-11T18:51:27.630Z,98451.59
2017-10-11T18:53:56.196Z,98455.58
2017-10-11T18:56:25.442Z,98457.20
2017-10-11T18:58:57.194Z,98454.19
2017-10-11T19:01:25.553Z,98465.11
2017-10-11T19:03:55.128Z,98466.57
2017-10-11T19:06:24.429Z,98468.00
2017-10-11T19:08:53.159Z,98466.97
2017-10-11T19:11:21.562Z,98474.67
2017-10-11T19:13:49.939Z,98471.76
2017-10-11T19:16:18.320Z,98480.59
2017-10-11T19:18:46.692Z,98480.25
2017-10-11T19:21:16.389Z,98486.38
2017-10-11T19:23:44.717Z,98489.64
2017-10-11T19:26:13.100Z,98493.64
2017-10-11T19:28:41.461Z,98500.81
2017-10-11T19:31:11.665Z,98501.38
2017-10-11T19:33:40.034Z,98501.89
2017-10-11T19:36:09.114Z,98499.40
2017-10-11T19:38:38.619Z,98498.30
2017-10-11T19:41:07.927Z,98497.52
2017-10-11T19:43:36.310Z,98500.09
2017-10-11T19:46:04.705Z,98490.32
2017-10-11T19:48:33.067Z,98488.02
2017-10-11T19:51:01.446Z,98483.04
2017-10-11T19:53:30.749Z,98487.05
2017-10-11T19:56:00.325Z,98488.33
2017-10-11T19:58:28.810Z,98490.05
2017-10-11T20:00:57.154Z,98490.31
2017-10-11T20:03:25.574Z,98486.53
2017-10-11T20:05:53.908Z,98489.24
2017-10-11T20:08:22.286Z,98493.75
2017-10-11T20:10:50.662Z,98493.50
2017-10-11T20:13:19.064Z,98499.44
2017-10-11T20:15:47.429Z,98494.48
2017-10-11T20:18:15.760Z,98496.36
2017-10-11T20:20:45.096Z,98506.18
2017-10-11T20:23:13.423Z,98499.14
2017-10-11T20:25:41.843Z,98505.64
2017-10-11T20:28:10.220Z,98503.88
2017-10-11T20:30:38.618Z,98498.19
2017-10-11T20:33:07.887Z,98502.29
2017-10-11T20:35:37.184Z,98505.77
2017-10-11T20:38:06.504Z,98505.13
2017-10-11T20:40:34.863Z,98508.30
2017-10-11T20:43:03.860Z,98504.28
2017-10-11T20:45:33.162Z,98512.18
2017-10-11T20:48:02.480Z,98509.81
2017-10-11T20:50:32.487Z,98504.14
2017-10-11T20:53:01.720Z,98508.16
2017-10-11T20:55:30.078Z,98503.69
2017-10-11T20:57:59.377Z,98514.23
2017-10-11T21:00:29.059Z,98511.83
2017-10-11T21:02:58.594Z,98508.88
2017-10-11T21:05:27.929Z,98511.25
2017-10-11T21:07:56.379Z,98514.45
2017-10-11T21:10:25.564Z,98524.59
2017-10-11T21:12:53.903Z,98523.34
2017-10-11T21:15:22.346Z,98519.62
2017-10-11T21:17:50.724Z,98518.98
2017-10-11T21:20:19.083Z,98513.07
2017-10-11T21:22:48.190Z,98516.17
2017-10-11T21:25:17.422Z,98513.80
2017-10-11T21:27:45.814Z,98507.79
2017-10-11T21:30:14.162Z,98513.16
2017-10-11T21:32:42.515Z,98512.09
2017-10-11T21:35:11.870Z,98513.75
2017-10-11T21:37:40.325Z,98516.80
2017-10-11T21:40:08.996Z,98514.77
2017-10-11T21:42:37.328Z,98516.91
2017-10-11T21:45:05.662Z,98518.81
2017-10-11T21:47:34.986Z,98522.50
2017-10-11T21:50:03.332Z,98522.58
2017-10-11T21:52:32.657Z,98521.37
2017-10-11T21:55:01.034Z,98526.38
2017-10-11T21:57:30.589Z,98518.57
2017-10-11T21:59:59.010Z,98526.33
2017-10-11T22:02:28.306Z,98524.92
2017-10-11T22:04:57.615Z,98520.98
2017-10-11T22:07:30.447Z,98517.64
2017-10-11T22:09:58.980Z,98520.34
2017-10-11T22:12:28.329Z,98519.70
2017-10-11T22:15:01.158Z,98516.33
2017-10-11T22:17:29.585Z,98507.68
2017-10-11T22:19:58.085Z,98502.69
2017-10-11T22:22:26.433Z,98494.23
2017-10-11T22:24:55.717Z,98490.41
2017-10-11T22:27:25.038Z,98488.15
2017-10-11T22:29:53.397Z,98483.41
2017-10-11T22:32:21.780Z,98480.95
2017-10-11T22:34:51.063Z,98479.86
2017-10-11T22:37:19.462Z,98484.34
2017-10-11T22:39:48.787Z,98482.30
2017-10-11T22:42:17.134Z,98478.97
2017-10-11T22:44:46.491Z,98474.10
2017-10-11T22:47:19.136Z,98475.30
2017-10-11T22:49:48.114Z,98473.39
2017-10-11T22:52:17.342Z,98477.34
2017-10-11T22:54:46.519Z,98476.20
2017-10-11T22:57:14.770Z,98477.59
2017-10-11T22:59:44.224Z,98477.84
2017-10-11T23:02:12.506Z,98480.56
2017-10-11T23:04:40.848Z,98481.16
2017-10-11T23:07:10.105Z,98487.23
2017-10-11T23:09:38.555Z,98481.16
2017-10-11T23:12:06.883Z,98480.42
2017-10-11T23:14:35.260Z,98479.50
2017-10-11T23:17:03.628Z,98477.95
2017-10-11T23:19:32.016Z,98476.42
2017-10-11T23:22:00.427Z,98469.48
2017-10-11T23:24:28.768Z,98464.52
2017-10-11T23:26:57.168Z,98467.41
2017-10-11T23:29:25.849Z,98466.67
2017-10-11T23:31:54.187Z,98467.44
2017-10-11T23:34:23.500Z,98471.69
2017-10-11T23:36:51.895Z,98468.69
2017-10-11T23:39:20.279Z,98469.97
2017-10-11T23:41:48.681Z,98471.73
2017-10-11T23:44:17.049Z,98475.69
2017-10-11T23:46:45.811Z,98475.39
2017-10-11T23:49:14.221Z,98472.23
2017-10-11T23:51:42.503Z,98469.06
2017-10-11T23:54:10.858Z,98470.92
2017-10-11T23:56:39.257Z,98469.72
2017-10-11T23:59:07.619Z,98474.98
